デンバー の空港の天気 - METARとTAF

デンバー国際空港 ( KDEN / DEN ) - アメリカ コロラド州デンバー
飛行場実況気象(Metar)
観測時間07/28 19:53 MDT (07/29 01:53 UTC)
風向・風速静穏 0m/s
視程10km以上
天気現象
少しの雲 雲底高度 3660m
少しの雲 雲底高度 5490m
全天の4割程度の雲 雲底高度 7620m
気温33.3℃
湿度18%
気圧1009.4hPa
METARKDEN 290153Z 00000KT 10SM FEW120 FEW180 SCT250 33/06 A3011 RMK AO2 SLP094 T03330056
過去の天気等 Google飛行場航空写真 Wunderground天気予報

過去48時間のMETAR

飛行場予報(TAF)
発表時間: 7/28 20:24 MDT (7/29 02:24 UTC)
予報対象時間: 28日20時 MDT ~ 30日0時 MDT
風向・風速南東 5m/s
視程10km以上
少しの雲 雲底高度 2440m
少しの雲 雲底高度 6710m
29日1時 MDT から
風向・風速南南西 5m/s
視程10km以上
少しの雲 雲底高度 6710m
29日7時 MDT から
風向・風速西北西 5m/s
視程10km以上
少しの雲 雲底高度 6710m
29日10時 MDT から
風向・風速北 4m/s
視程10km以上
少しの雲 雲底高度 6710m
29日13時 MDT から
風向・風速東 5m/s
視程10km以上
少しの雲 雲底高度 2440m
少しの雲 雲底高度 6710m
29日20時 MDT から
風向・風速南東 6m/s
視程10km以上
少しの雲 雲底高度 2440m
少しの雲 雲底高度 6710m
KDEN 290224Z 2902/3006 14010KT P6SM FEW080 FEW220
FM290700 20009KT P6SM FEW220
FM291300 29010KT P6SM FEW220
FM291600 01008KT P6SM FEW220
FM291900 08009KT P6SM FEW080 FEW220
FM300200 14012KT P6SM FEW080 FEW220